Terminal Aerodrome Forecast
Issued by NWS Atlanta, GA

Home | Current Version | Previous Version | Text Only | Print | Product List | Glossary On
Versions: 1 2 3 4 5 6 7 8 9 10 11 12 13 14 15 16 17 18 19 20 21 22 23 24 25 26 27 28 29 30 31 32 33 34 35
000
FTUS42 KFFC 272127 AAB
TAFAHN
TAF AMD
KAHN 272127Z 2721/2818 22007KT P6SM SCT045
      TEMPO 2722/2724 24014G24KT 3SM TSRA BR BKN025CB
     FM280500 17005KT P6SM VCSH BKN035 PROB30 2807/2810 6SM -SHRA
      BKN025
     FM281000 22005KT 4SM BR BKN007
     FM281600 23008KT P6SM SCT007 BKN012=

USA.gov is the U.S. government's official web portal to all federal, state and local government web resources and services.